sensor_id;sensor_type;location;lat;lon;timestamp;pressure;altitude;pressure_sealevel;temperature;humidity
20115;BME280;10218;42.874;25.320;2022-11-13T00:00:29;98810.38;;;9.22;100.00
20115;BME280;10218;42.874;25.320;2022-11-13T00:03:15;98808.06;;;8.95;100.00
20115;BME280;10218;42.874;25.320;2022-11-13T00:06:01;98810.63;;;9.19;100.00
20115;BME280;10218;42.874;25.320;2022-11-13T00:08:47;98819.69;;;9.05;100.00
20115;BME280;10218;42.874;25.320;2022-11-13T00:11:32;98816.31;;;8.81;100.00
20115;BME280;10218;42.874;25.320;2022-11-13T00:14:18;98811.59;;;8.95;100.00
20115;BME280;10218;42.874;25.320;2022-11-13T00:17:03;98812.06;;;9.23;100.00
20115;BME280;10218;42.874;25.320;2022-11-13T00:19:49;98800.66;;;9.32;100.00
20115;BME280;10218;42.874;25.320;2022-11-13T00:22:34;98807.19;;;9.39;100.00
20115;BME280;10218;42.874;25.320;2022-11-13T00:25:20;98797.03;;;9.22;100.00
20115;BME280;10218;42.874;25.320;2022-11-13T00:28:05;98794.84;;;9.16;100.00
20115;BME280;10218;42.874;25.320;2022-11-13T00:30:57;98789.78;;;9.13;100.00
20115;BME280;10218;42.874;25.320;2022-11-13T00:33:42;98796.34;;;9.09;100.00
20115;BME280;10218;42.874;25.320;2022-11-13T00:36:48;98800.66;;;9.32;100.00
20115;BME280;10218;42.874;25.320;2022-11-13T00:39:33;98787.28;;;9.43;100.00
20115;BME280;10218;42.874;25.320;2022-11-13T00:42:19;98779.31;;;9.21;100.00
20115;BME280;10218;42.874;25.320;2022-11-13T00:45:04;98791.59;;;9.12;100.00
20115;BME280;10218;42.874;25.320;2022-11-13T00:47:52;98788.72;;;8.93;100.00
20115;BME280;10218;42.874;25.320;2022-11-13T00:50:38;98786.34;;;9.22;100.00
20115;BME280;10218;42.874;25.320;2022-11-13T00:53:23;98782.94;;;9.31;100.00
20115;BME280;10218;42.874;25.320;2022-11-13T00:56:09;98778.00;;;9.04;100.00
20115;BME280;10218;42.874;25.320;2022-11-13T00:58:54;98784.91;;;9.18;100.00
20115;BME280;10218;42.874;25.320;2022-11-13T01:01:39;98790.03;;;8.87;100.00
20115;BME280;10218;42.874;25.320;2022-11-13T01:04:27;98787.16;;;8.68;100.00
20115;BME280;10218;42.874;25.320;2022-11-13T01:07:13;98790.16;;;8.75;100.00
20115;BME280;10218;42.874;25.320;2022-11-13T01:09:59;98796.81;;;9.14;100.00
20115;BME280;10218;42.874;25.320;2022-11-13T01:12:45;98794.38;;;8.99;100.00
20115;BME280;10218;42.874;25.320;2022-11-13T01:15:30;98788.44;;;8.96;100.00
20115;BME280;10218;42.874;25.320;2022-11-13T01:18:16;98785.91;;;8.94;100.00
20115;BME280;10218;42.874;25.320;2022-11-13T01:21:07;98782.63;;;9.02;100.00
20115;BME280;10218;42.874;25.320;2022-11-13T01:23:53;98784.56;;;8.55;100.00
20115;BME280;10218;42.874;25.320;2022-11-13T01:26:39;98782.03;;;8.54;100.00
20115;BME280;10218;42.874;25.320;2022-11-13T01:29:24;98783.97;;;8.96;100.00
20115;BME280;10218;42.874;25.320;2022-11-13T01:32:09;98785.66;;;9.09;100.00
20115;BME280;10218;42.874;25.320;2022-11-13T01:34:55;98775.97;;;8.96;100.00
20115;BME280;10218;42.874;25.320;2022-11-13T01:37:40;98783.72;;;9.11;100.00
20115;BME280;10218;42.874;25.320;2022-11-13T01:40:26;98776.59;;;8.78;100.00
20115;BME280;10218;42.874;25.320;2022-11-13T01:49:27;98785.44;;;8.56;100.00
20115;BME280;10218;42.874;25.320;2022-11-13T01:52:28;98787.09;;;8.35;100.00
20115;BME280;10218;42.874;25.320;2022-11-13T01:55:16;98790.78;;;8.78;100.00
20115;BME280;10218;42.874;25.320;2022-11-13T01:58:04;98781.78;;;8.90;100.00
20115;BME280;10218;42.874;25.320;2022-11-13T02:00:51;98782.75;;;9.00;100.00
20115;BME280;10218;42.874;25.320;2022-11-13T02:03:37;98774.78;;;8.78;100.00
20115;BME280;10218;42.874;25.320;2022-11-13T02:06:23;98771.25;;;8.44;100.00
20115;BME280;10218;42.874;25.320;2022-11-13T02:09:10;98780.22;;;8.88;100.00
20115;BME280;10218;42.874;25.320;2022-11-13T02:11:57;98782.50;;;8.59;100.00
20115;BME280;10218;42.874;25.320;2022-11-13T02:14:48;98771.63;;;8.62;100.00
20115;BME280;10218;42.874;25.320;2022-11-13T02:17:44;98770.06;;;8.82;100.00
20115;BME280;10218;42.874;25.320;2022-11-13T02:27:04;98778.81;;;8.27;100.00
20115;BME280;10218;42.874;25.320;2022-11-13T02:29:51;98773.06;;;8.33;100.00
20115;BME280;10218;42.874;25.320;2022-11-13T02:32:44;98774.66;;;8.46;100.00
20115;BME280;10218;42.874;25.320;2022-11-13T02:35:32;98769.94;;;8.61;100.00
20115;BME280;10218;42.874;25.320;2022-11-13T02:38:18;98769.47;;;8.78;100.00
20115;BME280;10218;42.874;25.320;2022-11-13T02:41:03;98763.38;;;8.65;100.00
20115;BME280;10218;42.874;25.320;2022-11-13T02:43:48;98760.38;;;8.47;100.00
20115;BME280;10218;42.874;25.320;2022-11-13T02:46:34;98769.91;;;8.50;100.00
20115;BME280;10218;42.874;25.320;2022-11-13T02:49:20;98779.28;;;8.21;100.00
20115;BME280;10218;42.874;25.320;2022-11-13T02:52:05;98771.25;;;8.55;100.00
20115;BME280;10218;42.874;25.320;2022-11-13T02:54:51;98778.75;;;8.39;100.00
20115;BME280;10218;42.874;25.320;2022-11-13T02:57:36;98767.75;;;8.33;100.00
20115;BME280;10218;42.874;25.320;2022-11-13T03:00:21;98787.03;;;8.24;100.00
20115;BME280;10218;42.874;25.320;2022-11-13T03:03:07;98776.88;;;8.29;100.00
20115;BME280;10218;42.874;25.320;2022-11-13T03:05:52;98795.44;;;7.95;100.00
20115;BME280;10218;42.874;25.320;2022-11-13T03:08:38;98802.00;;;8.13;100.00
20115;BME280;10218;42.874;25.320;2022-11-13T03:11:23;98796.37;;;8.29;100.00
20115;BME280;10218;42.874;25.320;2022-11-13T03:14:08;98781.31;;;8.52;100.00
20115;BME280;10218;42.874;25.320;2022-11-13T03:16:54;98783.22;;;8.39;100.00
20115;BME280;10218;42.874;25.320;2022-11-13T03:19:39;98785.47;;;8.21;100.00
20115;BME280;10218;42.874;25.320;2022-11-13T03:22:25;98780.72;;;8.02;100.00
20115;BME280;10218;42.874;25.320;2022-11-13T03:25:11;98788.03;;;8.23;100.00
20115;BME280;10218;42.874;25.320;2022-11-13T03:27:56;98785.72;;;8.29;100.00
20115;BME280;10218;42.874;25.320;2022-11-13T03:30:41;98784.09;;;8.04;100.00
20115;BME280;10218;42.874;25.320;2022-11-13T03:33:27;98765.56;;;8.60;100.00
20115;BME280;10218;42.874;25.320;2022-11-13T03:36:13;98767.53;;;8.58;100.00
20115;BME280;10218;42.874;25.320;2022-11-13T03:38:58;98763.06;;;8.24;100.00
20115;BME280;10218;42.874;25.320;2022-11-13T03:41:44;98769.78;;;8.40;100.00
20115;BME280;10218;42.874;25.320;2022-11-13T03:44:29;98772.50;;;8.16;100.00
20115;BME280;10218;42.874;25.320;2022-11-13T03:47:15;98772.50;;;8.16;100.00
20115;BME280;10218;42.874;25.320;2022-11-13T03:50:00;98777.47;;;8.21;100.00
20115;BME280;10218;42.874;25.320;2022-11-13T03:52:46;98782.63;;;8.00;100.00
20115;BME280;10218;42.874;25.320;2022-11-13T03:55:32;98777.56;;;8.08;100.00
20115;BME280;10218;42.874;25.320;2022-11-13T03:58:17;98791.19;;;7.93;100.00
20115;BME280;10218;42.874;25.320;2022-11-13T04:01:03;98777.56;;;7.73;100.00
20115;BME280;10218;42.874;25.320;2022-11-13T04:03:48;98778.72;;;7.82;100.00
20115;BME280;10218;42.874;25.320;2022-11-13T04:06:34;98783.94;;;7.95;100.00
20115;BME280;10218;42.874;25.320;2022-11-13T04:09:20;98776.09;;;8.04;100.00
20115;BME280;10218;42.874;25.320;2022-11-13T04:12:05;98787.03;;;8.24;100.00
20115;BME280;10218;42.874;25.320;2022-11-13T04:14:50;98777.41;;;7.99;100.00
20115;BME280;10218;42.874;25.320;2022-11-13T04:17:36;98790.38;;;7.92;100.00
20115;BME280;10218;42.874;25.320;2022-11-13T04:20:21;98797.94;;;7.86;100.00
20115;BME280;10218;42.874;25.320;2022-11-13T04:23:07;98792.97;;;7.81;100.00
20115;BME280;10218;42.874;25.320;2022-11-13T04:25:56;98787.50;;;8.06;100.00
20115;BME280;10218;42.874;25.320;2022-11-13T04:28:42;98783.34;;;7.91;100.00
20115;BME280;10218;42.874;25.320;2022-11-13T04:31:27;98785.72;;;7.83;100.00
20115;BME280;10218;42.874;25.320;2022-11-13T04:34:13;98789.87;;;7.63;100.00
20115;BME280;10218;42.874;25.320;2022-11-13T04:36:59;98791.88;;;7.84;100.00
20115;BME280;10218;42.874;25.320;2022-11-13T04:39:44;98776.47;;;7.65;100.00
20115;BME280;10218;42.874;25.320;2022-11-13T04:42:30;98787.41;;;7.84;100.00
20115;BME280;10218;42.874;25.320;2022-11-13T04:45:34;98780.72;;;8.02;100.00
20115;BME280;10218;42.874;25.320;2022-11-13T04:48:19;98768.13;;;7.69;100.00
20115;BME280;10218;42.874;25.320;2022-11-13T04:51:05;98783.00;;;7.72;100.00
20115;BME280;10218;42.874;25.320;2022-11-13T04:53:50;98779.72;;;7.68;100.00
20115;BME280;10218;42.874;25.320;2022-11-13T04:56:36;98778.22;;;7.53;100.00
20115;BME280;10218;42.874;25.320;2022-11-13T04:59:21;98770.91;;;7.68;100.00
20115;BME280;10218;42.874;25.320;2022-11-13T05:02:07;98779.16;;;7.76;100.00
20115;BME280;10218;42.874;25.320;2022-11-13T05:04:52;98770.53;;;7.61;100.00
20115;BME280;10218;42.874;25.320;2022-11-13T05:07:38;98773.91;;;7.63;100.00
20115;BME280;10218;42.874;25.320;2022-11-13T05:10:23;98774.00;;;7.62;100.00
20115;BME280;10218;42.874;25.320;2022-11-13T05:13:09;98774.59;;;7.89;100.00
20115;BME280;10218;42.874;25.320;2022-11-13T05:16:06;98772.09;;;7.64;100.00
20115;BME280;10218;42.874;25.320;2022-11-13T05:18:52;98778.50;;;7.61;100.00
20115;BME280;10218;42.874;25.320;2022-11-13T05:21:38;98783.47;;;7.66;100.00
20115;BME280;10218;42.874;25.320;2022-11-13T05:24:23;98778.78;;;7.69;100.00
20115;BME280;10218;42.874;25.320;2022-11-13T05:27:09;98784.78;;;7.60;100.00
20115;BME280;10218;42.874;25.320;2022-11-13T05:29:56;98785.28;;;7.65;100.00
20115;BME280;10218;42.874;25.320;2022-11-13T05:32:42;98786.09;;;7.55;100.00
20115;BME280;10218;42.874;25.320;2022-11-13T05:35:27;98792.94;;;7.70;100.00
20115;BME280;10218;42.874;25.320;2022-11-13T05:38:13;98788.31;;;7.72;100.00
20115;BME280;10218;42.874;25.320;2022-11-13T05:41:19;98775.00;;;7.96;100.00
20115;BME280;10218;42.874;25.320;2022-11-13T05:44:05;98787.41;;;7.84;100.00
20115;BME280;10218;42.874;25.320;2022-11-13T05:46:51;98795.34;;;7.73;100.00
20115;BME280;10218;42.874;25.320;2022-11-13T05:49:36;98800.00;;;7.82;100.00
20115;BME280;10218;42.874;25.320;2022-11-13T05:52:22;98800.00;;;7.82;100.00
20115;BME280;10218;42.874;25.320;2022-11-13T05:55:07;98780.53;;;7.58;100.00
20115;BME280;10218;42.874;25.320;2022-11-13T05:57:53;98797.66;;;7.78;100.00
20115;BME280;10218;42.874;25.320;2022-11-13T06:00:38;98802.44;;;7.61;100.00
20115;BME280;10218;42.874;25.320;2022-11-13T06:03:24;98804.78;;;8.01;100.00
20115;BME280;10218;42.874;25.320;2022-11-13T06:06:12;98803.97;;;7.77;100.00
20115;BME280;10218;42.874;25.320;2022-11-13T06:09:01;98804.63;;;7.91;100.00
20115;BME280;10218;42.874;25.320;2022-11-13T06:11:47;98811.16;;;7.63;100.00
20115;BME280;10218;42.874;25.320;2022-11-13T06:14:33;98806.44;;;7.67;100.00
20115;BME280;10218;42.874;25.320;2022-11-13T06:17:18;98811.31;;;7.73;100.00
20115;BME280;10218;42.874;25.320;2022-11-13T06:20:04;98804.75;;;7.66;100.00
20115;BME280;10218;42.874;25.320;2022-11-13T06:22:49;98813.91;;;7.38;100.00
20115;BME280;10218;42.874;25.320;2022-11-13T06:25:35;98811.41;;;7.48;100.00
20115;BME280;10218;42.874;25.320;2022-11-13T06:28:20;98815.72;;;7.85;100.00
20115;BME280;10218;42.874;25.320;2022-11-13T06:31:12;98809.69;;;7.94;100.00
20115;BME280;10218;42.874;25.320;2022-11-13T06:33:59;98813.00;;;7.74;100.00
20115;BME280;10218;42.874;25.320;2022-11-13T06:36:44;98800.72;;;7.84;100.00
20115;BME280;10218;42.874;25.320;2022-11-13T06:39:30;98803.78;;;7.91;100.00
20115;BME280;10218;42.874;25.320;2022-11-13T06:42:15;98808.19;;;7.79;100.00
20115;BME280;10218;42.874;25.320;2022-11-13T06:45:01;98813.63;;;8.01;100.00
20115;BME280;10218;42.874;25.320;2022-11-13T06:47:46;98809.56;;;7.85;100.00
20115;BME280;10218;42.874;25.320;2022-11-13T06:50:32;98792.03;;;7.93;100.00
20115;BME280;10218;42.874;25.320;2022-11-13T06:53:17;98804.47;;;8.16;100.00
20115;BME280;10218;42.874;25.320;2022-11-13T06:56:04;98800.44;;;8.46;100.00
20115;BME280;10218;42.874;25.320;2022-11-13T06:58:50;98787.78;;;8.26;100.00
20115;BME280;10218;42.874;25.320;2022-11-13T07:01:36;98791.97;;;8.74;100.00
20115;BME280;10218;42.874;25.320;2022-11-13T07:04:21;98808.91;;;8.05;100.00
20115;BME280;10218;42.874;25.320;2022-11-13T07:07:07;98808.72;;;7.60;100.00
20115;BME280;10218;42.874;25.320;2022-11-13T07:09:52;98803.38;;;7.84;100.00
20115;BME280;10218;42.874;25.320;2022-11-13T07:12:38;98801.69;;;7.83;100.00
20115;BME280;10218;42.874;25.320;2022-11-13T07:15:23;98788.94;;;8.45;100.00
20115;BME280;10218;42.874;25.320;2022-11-13T07:18:09;98785.62;;;8.31;100.00
20115;BME280;10218;42.874;25.320;2022-11-13T07:20:54;98760.72;;;8.43;100.00
20115;BME280;10218;42.874;25.320;2022-11-13T07:23:39;98785.44;;;8.56;100.00
20115;BME280;10218;42.874;25.320;2022-11-13T07:26:27;98793.28;;;8.00;100.00
20115;BME280;10218;42.874;25.320;2022-11-13T07:29:12;98793.88;;;7.69;100.00
20115;BME280;10218;42.874;25.320;2022-11-13T07:31:59;98789.75;;;7.65;100.00
20115;BME280;10218;42.874;25.320;2022-11-13T07:34:45;98798.84;;;8.08;100.00
20115;BME280;10218;42.874;25.320;2022-11-13T07:37:30;98787.13;;;8.57;100.00
20115;BME280;10218;42.874;25.320;2022-11-13T07:40:16;98771.00;;;9.03;100.00
20115;BME280;10218;42.874;25.320;2022-11-13T07:43:02;98764.13;;;8.78;100.00
20115;BME280;10218;42.874;25.320;2022-11-13T07:45:47;98756.34;;;8.64;100.00
20115;BME280;10218;42.874;25.320;2022-11-13T07:48:38;98755.62;;;8.51;100.00
20115;BME280;10218;42.874;25.320;2022-11-13T07:51:23;98761.22;;;8.70;100.00
20115;BME280;10218;42.874;25.320;2022-11-13T07:54:09;98750.16;;;8.30;100.00
20115;BME280;10218;42.874;25.320;2022-11-13T07:56:54;98760.91;;;8.29;100.00
20115;BME280;10218;42.874;25.320;2022-11-13T07:59:39;98757.28;;;9.19;100.00
20115;BME280;10218;42.874;25.320;2022-11-13T08:02:25;98757.13;;;9.63;100.00
20115;BME280;10218;42.874;25.320;2022-11-13T08:05:11;98747.53;;;9.93;100.00
20115;BME280;10218;42.874;25.320;2022-11-13T08:07:56;98747.97;;;9.45;100.00
20115;BME280;10218;42.874;25.320;2022-11-13T08:10:42;98749.38;;;9.28;100.00
20115;BME280;10218;42.874;25.320;2022-11-13T08:13:27;98744.00;;;9.71;100.00
20115;BME280;10218;42.874;25.320;2022-11-13T08:16:13;98737.38;;;9.86;100.00
20115;BME280;10218;42.874;25.320;2022-11-13T08:18:58;98733.09;;;10.16;100.00
20115;BME280;10218;42.874;25.320;2022-11-13T08:21:44;98723.16;;;10.07;100.00
20115;BME280;10218;42.874;25.320;2022-11-13T08:24:29;98727.75;;;9.74;100.00
20115;BME280;10218;42.874;25.320;2022-11-13T08:27:15;98722.16;;;10.80;100.00
20115;BME280;10218;42.874;25.320;2022-11-13T08:30:00;98708.97;;;12.41;100.00
20115;BME280;10218;42.874;25.320;2022-11-13T08:32:47;98704.00;;;13.38;100.00
20115;BME280;10218;42.874;25.320;2022-11-13T08:35:32;98708.56;;;13.28;100.00
20115;BME280;10218;42.874;25.320;2022-11-13T08:38:18;98703.72;;;11.45;100.00
20115;BME280;10218;42.874;25.320;2022-11-13T08:41:05;98697.47;;;13.76;100.00
20115;BME280;10218;42.874;25.320;2022-11-13T08:43:52;98675.66;;;16.38;100.00
20115;BME280;10218;42.874;25.320;2022-11-13T08:46:38;98677.91;;;17.20;100.00
20115;BME280;10218;42.874;25.320;2022-11-13T08:49:23;98678.25;;;15.99;100.00
20115;BME280;10218;42.874;25.320;2022-11-13T08:52:09;98682.69;;;15.17;100.00
20115;BME280;10218;42.874;25.320;2022-11-13T08:54:54;98665.41;;;18.33;83.91
20115;BME280;10218;42.874;25.320;2022-11-13T08:57:40;98674.91;;;17.15;90.52
20115;BME280;10218;42.874;25.320;2022-11-13T09:00:27;98676.53;;;18.53;73.51
20115;BME280;10218;42.874;25.320;2022-11-13T09:03:13;98669.03;;;18.25;76.31
20115;BME280;10218;42.874;25.320;2022-11-13T09:05:58;98668.69;;;17.68;80.54
20115;BME280;10218;42.874;25.320;2022-11-13T09:08:43;98662.78;;;17.42;91.93
20115;BME280;10218;42.874;25.320;2022-11-13T09:11:28;98664.09;;;19.17;73.96
20115;BME280;10218;42.874;25.320;2022-11-13T09:14:14;98653.50;;;20.49;63.36
20115;BME280;10218;42.874;25.320;2022-11-13T09:16:59;98653.94;;;20.87;57.79
20115;BME280;10218;42.874;25.320;2022-11-13T09:19:44;98650.19;;;19.41;67.10
20115;BME280;10218;42.874;25.320;2022-11-13T09:22:30;98641.78;;;19.36;71.78
20115;BME280;10218;42.874;25.320;2022-11-13T09:25:16;98643.91;;;17.34;81.28
20115;BME280;10218;42.874;25.320;2022-11-13T09:28:01;98633.16;;;16.48;100.00
20115;BME280;10218;42.874;25.320;2022-11-13T09:30:47;98634.78;;;16.57;100.00
20115;BME280;10218;42.874;25.320;2022-11-13T09:33:32;98623.88;;;18.85;78.12
20115;BME280;10218;42.874;25.320;2022-11-13T09:36:18;98624.81;;;19.28;67.83
20115;BME280;10218;42.874;25.320;2022-11-13T09:39:04;98613.47;;;20.30;62.83
20115;BME280;10218;42.874;25.320;2022-11-13T09:42:15;98606.69;;;18.04;72.62
20115;BME280;10218;42.874;25.320;2022-11-13T09:45:03;98605.47;;;18.95;73.05
20115;BME280;10218;42.874;25.320;2022-11-13T09:47:52;98604.53;;;20.08;71.10
20115;BME280;10218;42.874;25.320;2022-11-13T09:50:38;98608.06;;;21.12;57.97
20115;BME280;10218;42.874;25.320;2022-11-13T09:53:25;98604.47;;;20.02;63.34
20115;BME280;10218;42.874;25.320;2022-11-13T09:56:24;98597.59;;;19.99;68.15
20115;BME280;10218;42.874;25.320;2022-11-13T10:02:30;98587.12;;;20.24;67.85
20115;BME280;10218;42.874;25.320;2022-11-13T10:05:22;98599.00;;;21.72;56.06
20115;BME280;10218;42.874;25.320;2022-11-13T10:08:27;98591.84;;;19.60;63.36
20115;BME280;10218;42.874;25.320;2022-11-13T10:14:17;98572.84;;;18.67;70.17
20115;BME280;10218;42.874;25.320;2022-11-13T10:17:27;98570.97;;;21.79;57.20
20115;BME280;10218;42.874;25.320;2022-11-13T10:20:26;98569.84;;;20.32;62.51
20115;BME280;10218;42.874;25.320;2022-11-13T10:23:34;98563.53;;;20.25;61.60
20115;BME280;10218;42.874;25.320;2022-11-13T10:26:23;98554.81;;;22.36;54.56
20115;BME280;10218;42.874;25.320;2022-11-13T10:29:13;98558.41;;;21.91;55.60
20115;BME280;10218;42.874;25.320;2022-11-13T10:31:59;98549.59;;;21.49;56.85
20115;BME280;10218;42.874;25.320;2022-11-13T10:35:00;98535.06;;;23.05;52.30
20115;BME280;10218;42.874;25.320;2022-11-13T10:40:47;98534.03;;;20.97;60.91
20115;BME280;10218;42.874;25.320;2022-11-13T10:43:33;98533.25;;;20.62;59.85
20115;BME280;10218;42.874;25.320;2022-11-13T10:46:21;98517.00;;;21.62;56.35
20115;BME280;10218;42.874;25.320;2022-11-13T10:49:26;98509.84;;;21.35;58.22
20115;BME280;10218;42.874;25.320;2022-11-13T10:58:21;98496.25;;;22.65;54.34
20115;BME280;10218;42.874;25.320;2022-11-13T11:01:18;98488.25;;;22.77;52.70
20115;BME280;10218;42.874;25.320;2022-11-13T11:04:28;98490.84;;;22.58;52.32
20115;BME280;10218;42.874;25.320;2022-11-13T11:07:21;98486.16;;;22.79;52.64
20115;BME280;10218;42.874;25.320;2022-11-13T11:10:35;98476.84;;;22.48;53.78
20115;BME280;10218;42.874;25.320;2022-11-13T11:13:22;98474.38;;;23.48;50.03
20115;BME280;10218;42.874;25.320;2022-11-13T11:16:12;98469.87;;;23.03;49.88
20115;BME280;10218;42.874;25.320;2022-11-13T11:19:01;98475.53;;;23.83;49.58
20115;BME280;10218;42.874;25.320;2022-11-13T11:21:52;98467.94;;;24.46;47.41
20115;BME280;10218;42.874;25.320;2022-11-13T11:24:57;98457.16;;;22.46;52.85
20115;BME280;10218;42.874;25.320;2022-11-13T11:27:58;98448.19;;;23.15;50.46
20115;BME280;10218;42.874;25.320;2022-11-13T11:30:50;98448.75;;;22.92;51.37
20115;BME280;10218;42.874;25.320;2022-11-13T11:33:49;98450.22;;;22.95;50.44
20115;BME280;10218;42.874;25.320;2022-11-13T11:36:47;98444.41;;;24.45;47.74
20115;BME280;10218;42.874;25.320;2022-11-13T11:39:41;98449.56;;;26.36;43.19
20115;BME280;10218;42.874;25.320;2022-11-13T11:42:33;98444.16;;;24.65;45.60
20115;BME280;10218;42.874;25.320;2022-11-13T11:45:28;98445.97;;;24.71;43.90
20115;BME280;10218;42.874;25.320;2022-11-13T11:48:21;98435.06;;;25.77;43.43
20115;BME280;10218;42.874;25.320;2022-11-13T12:00:36;98420.41;;;23.00;48.30
20115;BME280;10218;42.874;25.320;2022-11-13T12:09:34;98426.56;;;22.89;51.46
20115;BME280;10218;42.874;25.320;2022-11-13T12:12:36;98420.94;;;23.65;49.60
20115;BME280;10218;42.874;25.320;2022-11-13T12:15:37;98423.69;;;21.68;53.60
20115;BME280;10218;42.874;25.320;2022-11-13T12:18:54;98415.72;;;21.54;53.34
20115;BME280;10218;42.874;25.320;2022-11-13T12:21:54;98412.78;;;22.39;53.36
20115;BME280;10218;42.874;25.320;2022-11-13T12:28:17;98419.31;;;23.57;49.65
20115;BME280;10218;42.874;25.320;2022-11-13T12:34:40;98409.56;;;23.68;49.80
20115;BME280;10218;42.874;25.320;2022-11-13T12:40:36;98418.38;;;23.70;49.47
20115;BME280;10218;42.874;25.320;2022-11-13T12:46:37;98415.34;;;22.66;51.91
20115;BME280;10218;42.874;25.320;2022-11-13T12:49:28;98408.75;;;24.40;48.51
20115;BME280;10218;42.874;25.320;2022-11-13T12:52:18;98420.94;;;24.56;46.83
20115;BME280;10218;42.874;25.320;2022-11-13T12:55:25;98421.28;;;22.56;51.39
20115;BME280;10218;42.874;25.320;2022-11-13T12:58:18;98418.88;;;22.79;49.75
20115;BME280;10218;42.874;25.320;2022-11-13T13:01:16;98418.56;;;22.94;50.75
20115;BME280;10218;42.874;25.320;2022-11-13T13:16:04;98429.06;;;18.98;72.77
20115;BME280;10218;42.874;25.320;2022-11-13T13:18:51;98436.81;;;20.25;61.19
20115;BME280;10218;42.874;25.320;2022-11-13T13:21:42;98431.91;;;19.39;67.55
20115;BME280;10218;42.874;25.320;2022-11-13T13:24:34;98437.75;;;20.52;60.60
20115;BME280;10218;42.874;25.320;2022-11-13T13:27:25;98437.41;;;20.62;60.78
20115;BME280;10218;42.874;25.320;2022-11-13T13:30:20;98430.56;;;20.92;58.91
20115;BME280;10218;42.874;25.320;2022-11-13T13:33:19;98426.59;;;20.95;59.67
20115;BME280;10218;42.874;25.320;2022-11-13T13:36:33;98433.38;;;19.41;71.78
20115;BME280;10218;42.874;25.320;2022-11-13T13:48:44;98432.00;;;19.52;72.56
20115;BME280;10218;42.874;25.320;2022-11-13T13:51:35;98429.81;;;18.34;91.02
20115;BME280;10218;42.874;25.320;2022-11-13T13:54:26;98424.63;;;19.67;74.36
20115;BME280;10218;42.874;25.320;2022-11-13T13:57:13;98423.47;;;18.78;79.66
20115;BME280;10218;42.874;25.320;2022-11-13T14:00:00;98428.22;;;17.60;98.51
20115;BME280;10218;42.874;25.320;2022-11-13T14:02:48;98427.81;;;16.74;100.00
20115;BME280;10218;42.874;25.320;2022-11-13T14:05:35;98436.94;;;15.72;100.00
20115;BME280;10218;42.874;25.320;2022-11-13T14:08:25;98429.97;;;15.86;100.00
20115;BME280;10218;42.874;25.320;2022-11-13T14:11:19;98430.16;;;14.96;100.00
20115;BME280;10218;42.874;25.320;2022-11-13T14:14:20;98429.13;;;14.89;100.00
20115;BME280;10218;42.874;25.320;2022-11-13T14:17:08;98423.25;;;14.70;100.00
20115;BME280;10218;42.874;25.320;2022-11-13T14:19:55;98440.06;;;14.96;100.00
20115;BME280;10218;42.874;25.320;2022-11-13T14:22:47;98433.16;;;14.69;100.00
20115;BME280;10218;42.874;25.320;2022-11-13T14:25:34;98437.03;;;14.75;100.00
20115;BME280;10218;42.874;25.320;2022-11-13T14:28:25;98432.41;;;14.27;100.00
20115;BME280;10218;42.874;25.320;2022-11-13T14:31:13;98436.47;;;13.55;100.00
20115;BME280;10218;42.874;25.320;2022-11-13T14:34:10;98437.28;;;13.81;100.00
20115;BME280;10218;42.874;25.320;2022-11-13T14:37:06;98440.00;;;13.89;100.00
20115;BME280;10218;42.874;25.320;2022-11-13T14:39:58;98433.03;;;13.70;100.00
20115;BME280;10218;42.874;25.320;2022-11-13T14:42:48;98434.09;;;13.26;100.00
20115;BME280;10218;42.874;25.320;2022-11-13T14:45:51;98432.56;;;13.15;100.00
20115;BME280;10218;42.874;25.320;2022-11-13T14:48:36;98442.88;;;13.10;100.00
20115;BME280;10218;42.874;25.320;2022-11-13T14:51:28;98440.13;;;13.02;100.00
20115;BME280;10218;42.874;25.320;2022-11-13T14:54:46;98428.00;;;13.42;100.00
20115;BME280;10218;42.874;25.320;2022-11-13T14:57:51;98446.75;;;13.34;100.00
20115;BME280;10218;42.874;25.320;2022-11-13T15:00:37;98449.41;;;13.25;100.00
20115;BME280;10218;42.874;25.320;2022-11-13T15:03:23;98443.34;;;13.23;100.00
20115;BME280;10218;42.874;25.320;2022-11-13T15:06:14;98446.59;;;13.35;100.00
20115;BME280;10218;42.874;25.320;2022-11-13T15:09:01;98437.28;;;13.81;100.00
20115;BME280;10218;42.874;25.320;2022-11-13T15:11:46;98441.94;;;13.71;100.00
20115;BME280;10218;42.874;25.320;2022-11-13T15:14:32;98433.06;;;13.01;100.00
20115;BME280;10218;42.874;25.320;2022-11-13T15:17:18;98445.53;;;12.84;100.00
20115;BME280;10218;42.874;25.320;2022-11-13T15:20:05;98451.19;;;12.99;100.00
20115;BME280;10218;42.874;25.320;2022-11-13T15:22:54;98451.97;;;13.61;100.00
20115;BME280;10218;42.874;25.320;2022-11-13T15:25:41;98454.34;;;13.72;100.00
20115;BME280;10218;42.874;25.320;2022-11-13T15:28:26;98447.25;;;13.63;100.00
20115;BME280;10218;42.874;25.320;2022-11-13T15:31:42;98442.09;;;13.36;100.00
20115;BME280;10218;42.874;25.320;2022-11-13T15:34:28;98448.38;;;13.26;100.00
20115;BME280;10218;42.874;25.320;2022-11-13T15:37:15;98453.31;;;12.96;100.00
20115;BME280;10218;42.874;25.320;2022-11-13T15:40:00;98454.09;;;12.88;100.00
20115;BME280;10218;42.874;25.320;2022-11-13T15:42:46;98455.16;;;13.13;100.00
20115;BME280;10218;42.874;25.320;2022-11-13T15:45:31;98454.69;;;13.43;100.00
20115;BME280;10218;42.874;25.320;2022-11-13T15:48:18;98454.28;;;13.56;100.00
20115;BME280;10218;42.874;25.320;2022-11-13T15:51:34;98451.03;;;13.18;100.00
20115;BME280;10218;42.874;25.320;2022-11-13T15:54:25;98451.88;;;13.45;100.00
20115;BME280;10218;42.874;25.320;2022-11-13T15:57:20;98449.06;;;13.28;100.00